Terminal Aerodrome Forecast
Issued by NWS

Home | Current Version | Previous Version | Text Only | Print | Product List | Glossary On
Versions: 1 2 3 4 5 6 7 8 9 10 11 12 13 14 15 16 17 18 19 20 21 22 23 24 25 26 27 28 29 30 31 32 33 34 35 36 37 38 39 40 41 42
000
FTUS41 KBOX 121728
TAFMHT
TAF
KMHT 121728Z 1218/1318 21005KT P6SM SCT050
     FM130000 16007KT P6SM SCT050
     FM130400 19004KT P6SM SCT250
     FM130800 00000KT P6SM SCT090
     FM131300 19006KT P6SM SCT250
     FM131400 19008KT P6SM BKN100=

USA.gov is the U.S. government's official web portal to all federal, state and local government web resources and services.